sensor_id;sensor_type;location;lat;lon;timestamp;temperature;humidity
8928;DHT22;4499;48.304;11.902;2023-06-10T00:00:05;15.00;99.90
8928;DHT22;4499;48.304;11.902;2023-06-10T00:02:34;15.00;99.90
8928;DHT22;4499;48.304;11.902;2023-06-10T00:05:02;15.00;99.90
8928;DHT22;4499;48.304;11.902;2023-06-10T00:07:32;15.00;99.90
8928;DHT22;4499;48.304;11.902;2023-06-10T00:10:04;15.00;99.90
8928;DHT22;4499;48.304;11.902;2023-06-10T00:12:33;14.90;99.90
8928;DHT22;4499;48.304;11.902;2023-06-10T00:15:06;14.90;99.90
8928;DHT22;4499;48.304;11.902;2023-06-10T00:17:35;14.80;99.90
8928;DHT22;4499;48.304;11.902;2023-06-10T00:20:08;14.80;99.90
8928;DHT22;4499;48.304;11.902;2023-06-10T00:22:40;14.80;99.90
8928;DHT22;4499;48.304;11.902;2023-06-10T00:25:12;14.80;99.90
8928;DHT22;4499;48.304;11.902;2023-06-10T00:27:40;14.80;99.90
8928;DHT22;4499;48.304;11.902;2023-06-10T00:30:09;14.80;99.90
8928;DHT22;4499;48.304;11.902;2023-06-10T00:32:38;14.80;99.90
8928;DHT22;4499;48.304;11.902;2023-06-10T00:35:07;14.70;99.90
8928;DHT22;4499;48.304;11.902;2023-06-10T00:37:35;14.70;99.90
8928;DHT22;4499;48.304;11.902;2023-06-10T00:40:06;14.70;99.90
8928;DHT22;4499;48.304;11.902;2023-06-10T00:42:36;14.70;99.90
8928;DHT22;4499;48.304;11.902;2023-06-10T00:45:05;14.70;99.90
8928;DHT22;4499;48.304;11.902;2023-06-10T00:47:34;14.70;99.90
8928;DHT22;4499;48.304;11.902;2023-06-10T00:50:04;14.70;99.90
8928;DHT22;4499;48.304;11.902;2023-06-10T00:52:33;14.70;99.90
8928;DHT22;4499;48.304;11.902;2023-06-10T00:55:05;14.70;99.90
8928;DHT22;4499;48.304;11.902;2023-06-10T00:57:35;14.70;99.90
8928;DHT22;4499;48.304;11.902;2023-06-10T01:00:05;14.70;99.90
8928;DHT22;4499;48.304;11.902;2023-06-10T01:02:35;14.70;99.90
8928;DHT22;4499;48.304;11.902;2023-06-10T01:05:04;14.70;99.90
8928;DHT22;4499;48.304;11.902;2023-06-10T01:07:36;14.70;99.90
8928;DHT22;4499;48.304;11.902;2023-06-10T01:10:15;14.70;99.90
8928;DHT22;4499;48.304;11.902;2023-06-10T01:12:46;14.60;99.90
8928;DHT22;4499;48.304;11.902;2023-06-10T01:15:19;14.60;99.90
8928;DHT22;4499;48.304;11.902;2023-06-10T01:17:56;14.50;99.90
8928;DHT22;4499;48.304;11.902;2023-06-10T01:20:25;14.50;99.90
8928;DHT22;4499;48.304;11.902;2023-06-10T01:22:57;14.50;99.90
8928;DHT22;4499;48.304;11.902;2023-06-10T01:25:27;14.50;99.90
8928;DHT22;4499;48.304;11.902;2023-06-10T01:28:01;14.50;99.90
8928;DHT22;4499;48.304;11.902;2023-06-10T01:30:34;14.40;99.90
8928;DHT22;4499;48.304;11.902;2023-06-10T01:33:05;14.50;99.90
8928;DHT22;4499;48.304;11.902;2023-06-10T01:35:37;14.40;99.90
8928;DHT22;4499;48.304;11.902;2023-06-10T01:38:07;14.40;99.90
8928;DHT22;4499;48.304;11.902;2023-06-10T01:40:36;14.40;99.90
8928;DHT22;4499;48.304;11.902;2023-06-10T01:43:04;14.40;99.90
8928;DHT22;4499;48.304;11.902;2023-06-10T01:45:32;14.40;99.90
8928;DHT22;4499;48.304;11.902;2023-06-10T01:48:00;14.40;99.90
8928;DHT22;4499;48.304;11.902;2023-06-10T01:50:28;14.40;99.90
8928;DHT22;4499;48.304;11.902;2023-06-10T01:52:57;14.40;99.90
8928;DHT22;4499;48.304;11.902;2023-06-10T01:55:27;14.40;99.90
8928;DHT22;4499;48.304;11.902;2023-06-10T01:57:55;14.40;99.90
8928;DHT22;4499;48.304;11.902;2023-06-10T02:00:23;14.40;99.90
8928;DHT22;4499;48.304;11.902;2023-06-10T02:02:51;14.40;99.90
8928;DHT22;4499;48.304;11.902;2023-06-10T02:05:19;14.30;99.90
8928;DHT22;4499;48.304;11.902;2023-06-10T02:07:47;14.30;99.90
8928;DHT22;4499;48.304;11.902;2023-06-10T02:10:16;14.20;99.90
8928;DHT22;4499;48.304;11.902;2023-06-10T02:12:45;14.20;99.90
8928;DHT22;4499;48.304;11.902;2023-06-10T02:15:15;14.10;99.90
8928;DHT22;4499;48.304;11.902;2023-06-10T02:17:48;14.00;99.90
8928;DHT22;4499;48.304;11.902;2023-06-10T02:20:17;14.00;99.90
8928;DHT22;4499;48.304;11.902;2023-06-10T02:22:45;13.90;99.90
8928;DHT22;4499;48.304;11.902;2023-06-10T02:25:15;13.90;99.90
8928;DHT22;4499;48.304;11.902;2023-06-10T02:27:44;13.80;99.90
8928;DHT22;4499;48.304;11.902;2023-06-10T02:30:13;13.70;99.90
8928;DHT22;4499;48.304;11.902;2023-06-10T02:32:42;13.70;99.90
8928;DHT22;4499;48.304;11.902;2023-06-10T02:35:14;13.70;99.90
8928;DHT22;4499;48.304;11.902;2023-06-10T02:37:43;13.70;99.90
8928;DHT22;4499;48.304;11.902;2023-06-10T02:40:11;13.60;99.90
8928;DHT22;4499;48.304;11.902;2023-06-10T02:42:39;13.60;99.90
8928;DHT22;4499;48.304;11.902;2023-06-10T02:45:09;13.50;99.90
8928;DHT22;4499;48.304;11.902;2023-06-10T02:47:38;13.50;99.90
8928;DHT22;4499;48.304;11.902;2023-06-10T02:50:08;13.50;99.90
8928;DHT22;4499;48.304;11.902;2023-06-10T02:52:36;13.40;99.90
8928;DHT22;4499;48.304;11.902;2023-06-10T02:55:04;13.40;99.90
8928;DHT22;4499;48.304;11.902;2023-06-10T02:57:33;13.40;99.90
8928;DHT22;4499;48.304;11.902;2023-06-10T03:00:02;13.40;99.90
8928;DHT22;4499;48.304;11.902;2023-06-10T03:02:37;13.40;99.90
8928;DHT22;4499;48.304;11.902;2023-06-10T03:05:07;13.30;99.90
8928;DHT22;4499;48.304;11.902;2023-06-10T03:07:37;13.30;99.90
8928;DHT22;4499;48.304;11.902;2023-06-10T03:10:06;13.30;99.90
8928;DHT22;4499;48.304;11.902;2023-06-10T03:12:35;13.30;99.90
8928;DHT22;4499;48.304;11.902;2023-06-10T03:15:03;13.30;99.90
8928;DHT22;4499;48.304;11.902;2023-06-10T03:17:33;13.30;99.90
8928;DHT22;4499;48.304;11.902;2023-06-10T03:20:03;13.20;99.90
8928;DHT22;4499;48.304;11.902;2023-06-10T03:22:32;13.20;99.90
8928;DHT22;4499;48.304;11.902;2023-06-10T03:25:00;13.20;99.90
8928;DHT22;4499;48.304;11.902;2023-06-10T03:27:28;13.20;99.90
8928;DHT22;4499;48.304;11.902;2023-06-10T03:29:57;13.20;99.90
8928;DHT22;4499;48.304;11.902;2023-06-10T03:32:25;13.20;99.90
8928;DHT22;4499;48.304;11.902;2023-06-10T03:34:53;13.20;99.90
8928;DHT22;4499;48.304;11.902;2023-06-10T03:37:25;13.20;99.90
8928;DHT22;4499;48.304;11.902;2023-06-10T03:39:53;13.20;99.90
8928;DHT22;4499;48.304;11.902;2023-06-10T03:42:21;13.20;99.90
8928;DHT22;4499;48.304;11.902;2023-06-10T03:44:49;13.20;99.90
8928;DHT22;4499;48.304;11.902;2023-06-10T03:47:18;13.20;99.90
8928;DHT22;4499;48.304;11.902;2023-06-10T03:49:46;13.20;99.90
8928;DHT22;4499;48.304;11.902;2023-06-10T03:52:14;13.20;99.90
8928;DHT22;4499;48.304;11.902;2023-06-10T03:54:43;13.20;99.90
8928;DHT22;4499;48.304;11.902;2023-06-10T03:57:11;13.20;99.90
8928;DHT22;4499;48.304;11.902;2023-06-10T03:59:40;13.20;99.90
8928;DHT22;4499;48.304;11.902;2023-06-10T04:02:08;13.30;99.90
8928;DHT22;4499;48.304;11.902;2023-06-10T04:04:36;13.30;99.90
8928;DHT22;4499;48.304;11.902;2023-06-10T04:07:04;13.30;99.90
8928;DHT22;4499;48.304;11.902;2023-06-10T04:09:33;13.30;99.90
8928;DHT22;4499;48.304;11.902;2023-06-10T04:12:04;13.30;99.90
8928;DHT22;4499;48.304;11.902;2023-06-10T04:14:35;13.30;99.90
8928;DHT22;4499;48.304;11.902;2023-06-10T04:17:05;13.30;99.90
8928;DHT22;4499;48.304;11.902;2023-06-10T04:19:34;13.30;99.90
8928;DHT22;4499;48.304;11.902;2023-06-10T04:22:02;13.40;99.90
8928;DHT22;4499;48.304;11.902;2023-06-10T04:24:32;13.40;99.90
8928;DHT22;4499;48.304;11.902;2023-06-10T04:27:00;13.50;99.90
8928;DHT22;4499;48.304;11.902;2023-06-10T04:29:29;13.50;99.90
8928;DHT22;4499;48.304;11.902;2023-06-10T04:31:57;13.60;99.90
8928;DHT22;4499;48.304;11.902;2023-06-10T04:34:26;13.70;99.90
8928;DHT22;4499;48.304;11.902;2023-06-10T04:36:54;13.80;99.90
8928;DHT22;4499;48.304;11.902;2023-06-10T04:39:22;13.80;99.90
8928;DHT22;4499;48.304;11.902;2023-06-10T04:41:51;13.90;99.90
8928;DHT22;4499;48.304;11.902;2023-06-10T04:44:19;14.00;99.90
8928;DHT22;4499;48.304;11.902;2023-06-10T04:46:49;14.00;99.90
8928;DHT22;4499;48.304;11.902;2023-06-10T04:49:17;14.10;99.90
8928;DHT22;4499;48.304;11.902;2023-06-10T04:51:45;14.20;99.90
8928;DHT22;4499;48.304;11.902;2023-06-10T04:54:14;14.30;99.90
8928;DHT22;4499;48.304;11.902;2023-06-10T04:56:42;14.40;99.90
8928;DHT22;4499;48.304;11.902;2023-06-10T04:59:11;14.50;99.90
8928;DHT22;4499;48.304;11.902;2023-06-10T05:01:41;14.60;99.90
8928;DHT22;4499;48.304;11.902;2023-06-10T05:04:10;14.70;99.90
8928;DHT22;4499;48.304;11.902;2023-06-10T05:06:39;14.70;99.90
8928;DHT22;4499;48.304;11.902;2023-06-10T05:09:07;14.80;99.90
8928;DHT22;4499;48.304;11.902;2023-06-10T05:11:35;14.90;99.90
8928;DHT22;4499;48.304;11.902;2023-06-10T05:14:03;15.00;99.90
8928;DHT22;4499;48.304;11.902;2023-06-10T05:16:32;15.00;99.90
8928;DHT22;4499;48.304;11.902;2023-06-10T05:19:00;15.10;99.90
8928;DHT22;4499;48.304;11.902;2023-06-10T05:21:31;15.10;99.90
8928;DHT22;4499;48.304;11.902;2023-06-10T05:23:59;15.20;99.90
8928;DHT22;4499;48.304;11.902;2023-06-10T05:26:27;15.20;99.90
8928;DHT22;4499;48.304;11.902;2023-06-10T05:28:55;15.20;99.90
8928;DHT22;4499;48.304;11.902;2023-06-10T05:31:23;15.20;99.90
8928;DHT22;4499;48.304;11.902;2023-06-10T05:33:52;15.20;99.90
8928;DHT22;4499;48.304;11.902;2023-06-10T05:36:20;15.20;99.90
8928;DHT22;4499;48.304;11.902;2023-06-10T05:38:49;15.30;99.90
8928;DHT22;4499;48.304;11.902;2023-06-10T05:41:17;15.30;99.90
8928;DHT22;4499;48.304;11.902;2023-06-10T05:43:46;15.30;99.90
8928;DHT22;4499;48.304;11.902;2023-06-10T05:46:14;15.40;99.90
8928;DHT22;4499;48.304;11.902;2023-06-10T05:48:42;15.60;99.90
8928;DHT22;4499;48.304;11.902;2023-06-10T05:51:10;15.80;99.90
8928;DHT22;4499;48.304;11.902;2023-06-10T05:53:38;16.20;99.90
8928;DHT22;4499;48.304;11.902;2023-06-10T05:56:08;17.10;99.90
8928;DHT22;4499;48.304;11.902;2023-06-10T05:58:36;18.20;99.90
8928;DHT22;4499;48.304;11.902;2023-06-10T06:01:04;19.10;99.90
8928;DHT22;4499;48.304;11.902;2023-06-10T06:03:32;19.50;99.90
8928;DHT22;4499;48.304;11.902;2023-06-10T06:06:01;20.50;99.90
8928;DHT22;4499;48.304;11.902;2023-06-10T06:08:29;22.30;99.90
8928;DHT22;4499;48.304;11.902;2023-06-10T06:10:57;23.10;99.90
8928;DHT22;4499;48.304;11.902;2023-06-10T06:13:27;24.40;99.90
8928;DHT22;4499;48.304;11.902;2023-06-10T06:15:55;24.90;97.30
8928;DHT22;4499;48.304;11.902;2023-06-10T06:18:23;25.30;94.60
8928;DHT22;4499;48.304;11.902;2023-06-10T06:20:51;25.60;94.40
8928;DHT22;4499;48.304;11.902;2023-06-10T06:23:20;26.10;91.40
8928;DHT22;4499;48.304;11.902;2023-06-10T06:25:48;26.70;91.50
8928;DHT22;4499;48.304;11.902;2023-06-10T06:28:16;27.20;86.90
8928;DHT22;4499;48.304;11.902;2023-06-10T06:30:47;27.80;82.50
8928;DHT22;4499;48.304;11.902;2023-06-10T06:33:15;28.40;79.50
8928;DHT22;4499;48.304;11.902;2023-06-10T06:35:43;28.60;76.50
8928;DHT22;4499;48.304;11.902;2023-06-10T06:38:12;28.70;74.60
8928;DHT22;4499;48.304;11.902;2023-06-10T06:40:40;27.80;76.40
8928;DHT22;4499;48.304;11.902;2023-06-10T06:43:08;27.40;77.70
8928;DHT22;4499;48.304;11.902;2023-06-10T06:45:36;27.70;77.50
8928;DHT22;4499;48.304;11.902;2023-06-10T06:48:06;27.60;79.80
8928;DHT22;4499;48.304;11.902;2023-06-10T06:50:35;29.00;73.50
8928;DHT22;4499;48.304;11.902;2023-06-10T06:53:03;29.40;73.00
8928;DHT22;4499;48.304;11.902;2023-06-10T06:55:31;29.70;70.70
8928;DHT22;4499;48.304;11.902;2023-06-10T06:57:59;29.70;65.90
8928;DHT22;4499;48.304;11.902;2023-06-10T07:00:30;29.40;66.80
8928;DHT22;4499;48.304;11.902;2023-06-10T07:02:59;29.40;69.60
8928;DHT22;4499;48.304;11.902;2023-06-10T07:05:28;30.10;64.70
8928;DHT22;4499;48.304;11.902;2023-06-10T07:07:57;29.10;67.10
8928;DHT22;4499;48.304;11.902;2023-06-10T07:10:26;30.10;65.00
8928;DHT22;4499;48.304;11.902;2023-06-10T07:12:54;28.70;65.10
8928;DHT22;4499;48.304;11.902;2023-06-10T07:15:22;28.60;69.60
8928;DHT22;4499;48.304;11.902;2023-06-10T07:17:50;29.30;66.70
8928;DHT22;4499;48.304;11.902;2023-06-10T07:20:18;29.80;64.80
8928;DHT22;4499;48.304;11.902;2023-06-10T07:22:48;29.90;64.90
8928;DHT22;4499;48.304;11.902;2023-06-10T07:25:16;30.20;63.00
8928;DHT22;4499;48.304;11.902;2023-06-10T07:27:44;30.10;62.10
8928;DHT22;4499;48.304;11.902;2023-06-10T07:30:13;29.10;63.60
8928;DHT22;4499;48.304;11.902;2023-06-10T07:32:41;29.00;65.50
8928;DHT22;4499;48.304;11.902;2023-06-10T07:35:10;28.60;70.10
8928;DHT22;4499;48.304;11.902;2023-06-10T07:37:39;29.10;63.80
8928;DHT22;4499;48.304;11.902;2023-06-10T07:40:09;29.10;63.40
8928;DHT22;4499;48.304;11.902;2023-06-10T07:42:37;29.20;63.00
8928;DHT22;4499;48.304;11.902;2023-06-10T07:45:07;28.90;63.90
8928;DHT22;4499;48.304;11.902;2023-06-10T07:47:35;29.80;63.00
8928;DHT22;4499;48.304;11.902;2023-06-10T07:50:04;29.70;61.90
8928;DHT22;4499;48.304;11.902;2023-06-10T07:52:32;30.20;59.90
8928;DHT22;4499;48.304;11.902;2023-06-10T07:55:01;27.70;63.50
8928;DHT22;4499;48.304;11.902;2023-06-10T07:57:30;27.10;68.70
8928;DHT22;4499;48.304;11.902;2023-06-10T08:00:02;27.40;68.00
8928;DHT22;4499;48.304;11.902;2023-06-10T08:02:31;28.10;65.80
8928;DHT22;4499;48.304;11.902;2023-06-10T08:04:59;28.00;65.90
8928;DHT22;4499;48.304;11.902;2023-06-10T08:07:28;27.60;65.90
8928;DHT22;4499;48.304;11.902;2023-06-10T08:09:56;28.30;65.20
8928;DHT22;4499;48.304;11.902;2023-06-10T08:12:24;28.50;67.80
8928;DHT22;4499;48.304;11.902;2023-06-10T08:14:53;28.50;66.40
8928;DHT22;4499;48.304;11.902;2023-06-10T08:17:22;28.60;65.40
8928;DHT22;4499;48.304;11.902;2023-06-10T08:19:50;29.70;65.40
8928;DHT22;4499;48.304;11.902;2023-06-10T08:22:18;29.90;63.10
8928;DHT22;4499;48.304;11.902;2023-06-10T08:24:46;28.70;66.20
8928;DHT22;4499;48.304;11.902;2023-06-10T08:27:15;28.10;63.10
8928;DHT22;4499;48.304;11.902;2023-06-10T08:29:43;27.80;65.20
8928;DHT22;4499;48.304;11.902;2023-06-10T08:32:13;28.50;66.50
8928;DHT22;4499;48.304;11.902;2023-06-10T08:34:41;29.20;65.40
8928;DHT22;4499;48.304;11.902;2023-06-10T08:37:09;29.40;64.20
8928;DHT22;4499;48.304;11.902;2023-06-10T08:39:37;29.10;63.10
8928;DHT22;4499;48.304;11.902;2023-06-10T08:42:11;29.60;59.00
8928;DHT22;4499;48.304;11.902;2023-06-10T08:44:42;30.60;60.50
8928;DHT22;4499;48.304;11.902;2023-06-10T08:47:15;31.40;55.40
8928;DHT22;4499;48.304;11.902;2023-06-10T08:49:45;32.40;54.30
8928;DHT22;4499;48.304;11.902;2023-06-10T08:52:15;32.00;53.40
8928;DHT22;4499;48.304;11.902;2023-06-10T08:54:49;33.00;51.10
8928;DHT22;4499;48.304;11.902;2023-06-10T08:57:18;32.30;49.60
8928;DHT22;4499;48.304;11.902;2023-06-10T08:59:48;31.60;49.50
8928;DHT22;4499;48.304;11.902;2023-06-10T09:02:18;31.00;53.20
8928;DHT22;4499;48.304;11.902;2023-06-10T09:04:49;30.20;55.00
8928;DHT22;4499;48.304;11.902;2023-06-10T09:07:18;29.00;56.30
8928;DHT22;4499;48.304;11.902;2023-06-10T09:09:46;28.20;59.30
8928;DHT22;4499;48.304;11.902;2023-06-10T09:12:15;27.20;62.40
8928;DHT22;4499;48.304;11.902;2023-06-10T09:14:43;26.40;66.40
8928;DHT22;4499;48.304;11.902;2023-06-10T09:17:12;25.80;69.50
8928;DHT22;4499;48.304;11.902;2023-06-10T09:19:42;25.50;72.50
8928;DHT22;4499;48.304;11.902;2023-06-10T09:22:10;25.30;74.10
8928;DHT22;4499;48.304;11.902;2023-06-10T09:24:39;24.70;81.40
8928;DHT22;4499;48.304;11.902;2023-06-10T09:27:08;24.60;75.00
8928;DHT22;4499;48.304;11.902;2023-06-10T09:29:46;24.50;78.40
8928;DHT22;4499;48.304;11.902;2023-06-10T09:32:15;24.40;79.40
8928;DHT22;4499;48.304;11.902;2023-06-10T09:34:46;24.30;77.10
8928;DHT22;4499;48.304;11.902;2023-06-10T09:37:20;24.90;80.40
8928;DHT22;4499;48.304;11.902;2023-06-10T09:40:02;25.30;74.50
8928;DHT22;4499;48.304;11.902;2023-06-10T09:42:33;25.60;78.60
8928;DHT22;4499;48.304;11.902;2023-06-10T09:45:02;26.10;77.70
8928;DHT22;4499;48.304;11.902;2023-06-10T09:47:32;26.90;73.20
8928;DHT22;4499;48.304;11.902;2023-06-10T09:50:02;27.00;65.30
8928;DHT22;4499;48.304;11.902;2023-06-10T09:52:33;28.40;60.70
8928;DHT22;4499;48.304;11.902;2023-06-10T09:55:02;29.40;62.30
8928;DHT22;4499;48.304;11.902;2023-06-10T09:57:32;29.30;60.90
8928;DHT22;4499;48.304;11.902;2023-06-10T10:00:04;28.70;60.80
8928;DHT22;4499;48.304;11.902;2023-06-10T10:02:44;28.70;60.50
8928;DHT22;4499;48.304;11.902;2023-06-10T10:05:15;28.10;63.60
8928;DHT22;4499;48.304;11.902;2023-06-10T10:07:44;28.10;60.50
8928;DHT22;4499;48.304;11.902;2023-06-10T10:10:14;27.60;61.30
8928;DHT22;4499;48.304;11.902;2023-06-10T10:12:42;26.80;64.50
8928;DHT22;4499;48.304;11.902;2023-06-10T10:15:12;26.60;68.60
8928;DHT22;4499;48.304;11.902;2023-06-10T10:17:46;26.50;71.50
8928;DHT22;4499;48.304;11.902;2023-06-10T10:20:20;27.20;66.00
8928;DHT22;4499;48.304;11.902;2023-06-10T10:22:49;27.20;67.80
8928;DHT22;4499;48.304;11.902;2023-06-10T10:25:23;28.80;63.90
8928;DHT22;4499;48.304;11.902;2023-06-10T10:27:58;29.40;63.60
8928;DHT22;4499;48.304;11.902;2023-06-10T10:30:30;29.40;59.70
8928;DHT22;4499;48.304;11.902;2023-06-10T10:33:06;29.20;62.30
8928;DHT22;4499;48.304;11.902;2023-06-10T10:35:39;30.20;62.50
8928;DHT22;4499;48.304;11.902;2023-06-10T10:38:09;30.90;56.60
8928;DHT22;4499;48.304;11.902;2023-06-10T10:40:38;31.50;55.10
8928;DHT22;4499;48.304;11.902;2023-06-10T10:43:07;31.20;54.00
8928;DHT22;4499;48.304;11.902;2023-06-10T10:45:35;30.60;56.80
8928;DHT22;4499;48.304;11.902;2023-06-10T10:48:07;29.80;56.40
8928;DHT22;4499;48.304;11.902;2023-06-10T10:50:40;29.30;57.90
8928;DHT22;4499;48.304;11.902;2023-06-10T10:53:08;28.00;59.20
8928;DHT22;4499;48.304;11.902;2023-06-10T10:55:36;26.80;65.00
8928;DHT22;4499;48.304;11.902;2023-06-10T10:58:05;26.20;67.50
8928;DHT22;4499;48.304;11.902;2023-06-10T11:00:34;25.80;68.00
8928;DHT22;4499;48.304;11.902;2023-06-10T11:03:06;25.90;69.80
8928;DHT22;4499;48.304;11.902;2023-06-10T11:05:40;25.80;69.90
8928;DHT22;4499;48.304;11.902;2023-06-10T11:08:11;26.50;69.90
8928;DHT22;4499;48.304;11.902;2023-06-10T11:10:41;27.40;72.40
8928;DHT22;4499;48.304;11.902;2023-06-10T11:13:15;29.10;61.90
8928;DHT22;4499;48.304;11.902;2023-06-10T11:15:44;29.80;58.40
8928;DHT22;4499;48.304;11.902;2023-06-10T11:18:23;30.30;57.00
8928;DHT22;4499;48.304;11.902;2023-06-10T11:20:55;31.10;55.50
8928;DHT22;4499;48.304;11.902;2023-06-10T11:23:41;32.20;53.70
8928;DHT22;4499;48.304;11.902;2023-06-10T11:26:29;32.70;52.10
8928;DHT22;4499;48.304;11.902;2023-06-10T11:29:04;31.80;51.60
8928;DHT22;4499;48.304;11.902;2023-06-10T11:31:33;30.70;52.50
8928;DHT22;4499;48.304;11.902;2023-06-10T11:34:03;28.40;55.60
8928;DHT22;4499;48.304;11.902;2023-06-10T11:36:37;27.90;57.50
8928;DHT22;4499;48.304;11.902;2023-06-10T11:39:07;27.20;59.10
8928;DHT22;4499;48.304;11.902;2023-06-10T11:41:36;26.60;66.50
8928;DHT22;4499;48.304;11.902;2023-06-10T11:44:08;26.10;66.90
8928;DHT22;4499;48.304;11.902;2023-06-10T11:46:36;25.50;67.50
8928;DHT22;4499;48.304;11.902;2023-06-10T11:49:06;25.10;71.70
8928;DHT22;4499;48.304;11.902;2023-06-10T11:51:36;24.90;74.90
8928;DHT22;4499;48.304;11.902;2023-06-10T11:54:06;24.50;77.50
8928;DHT22;4499;48.304;11.902;2023-06-10T11:56:36;24.20;77.20
8928;DHT22;4499;48.304;11.902;2023-06-10T11:59:05;23.90;82.10
8928;DHT22;4499;48.304;11.902;2023-06-10T12:01:36;23.50;82.70
8928;DHT22;4499;48.304;11.902;2023-06-10T12:04:09;23.30;85.40
8928;DHT22;4499;48.304;11.902;2023-06-10T12:06:41;23.20;87.40
8928;DHT22;4499;48.304;11.902;2023-06-10T12:09:14;23.00;90.40
8928;DHT22;4499;48.304;11.902;2023-06-10T12:11:53;23.00;92.10
8928;DHT22;4499;48.304;11.902;2023-06-10T12:14:50;23.00;91.70
8928;DHT22;4499;48.304;11.902;2023-06-10T12:17:18;23.10;93.10
8928;DHT22;4499;48.304;11.902;2023-06-10T12:19:46;23.30;91.70
8928;DHT22;4499;48.304;11.902;2023-06-10T12:22:16;23.40;92.90
8928;DHT22;4499;48.304;11.902;2023-06-10T12:24:57;23.50;91.50
8928;DHT22;4499;48.304;11.902;2023-06-10T12:27:28;23.80;92.40
8928;DHT22;4499;48.304;11.902;2023-06-10T12:29:57;24.00;91.80
8928;DHT22;4499;48.304;11.902;2023-06-10T12:32:36;23.90;90.00
8928;DHT22;4499;48.304;11.902;2023-06-10T12:35:06;24.20;89.00
8928;DHT22;4499;48.304;11.902;2023-06-10T12:37:36;24.30;88.60
8928;DHT22;4499;48.304;11.902;2023-06-10T12:40:10;24.50;84.40
8928;DHT22;4499;48.304;11.902;2023-06-10T12:42:38;24.40;82.10
8928;DHT22;4499;48.304;11.902;2023-06-10T12:45:07;24.50;83.50
8928;DHT22;4499;48.304;11.902;2023-06-10T12:47:38;24.90;84.80
8928;DHT22;4499;48.304;11.902;2023-06-10T12:50:07;24.90;79.80
8928;DHT22;4499;48.304;11.902;2023-06-10T12:52:37;25.10;79.10
8928;DHT22;4499;48.304;11.902;2023-06-10T12:55:06;25.40;79.20
8928;DHT22;4499;48.304;11.902;2023-06-10T12:57:35;25.70;83.80
8928;DHT22;4499;48.304;11.902;2023-06-10T13:00:04;25.80;79.00
8928;DHT22;4499;48.304;11.902;2023-06-10T13:02:35;25.90;79.90
8928;DHT22;4499;48.304;11.902;2023-06-10T13:05:04;25.80;74.30
8928;DHT22;4499;48.304;11.902;2023-06-10T13:07:32;25.90;75.90
8928;DHT22;4499;48.304;11.902;2023-06-10T13:10:02;25.90;75.80
8928;DHT22;4499;48.304;11.902;2023-06-10T13:12:30;25.90;79.50
8928;DHT22;4499;48.304;11.902;2023-06-10T13:15:12;25.80;80.30
8928;DHT22;4499;48.304;11.902;2023-06-10T13:17:42;25.80;80.30
8928;DHT22;4499;48.304;11.902;2023-06-10T13:20:10;25.70;76.60
8928;DHT22;4499;48.304;11.902;2023-06-10T13:22:38;25.70;77.20
8928;DHT22;4499;48.304;11.902;2023-06-10T13:25:09;26.00;73.30
8928;DHT22;4499;48.304;11.902;2023-06-10T13:27:38;25.70;74.50
8928;DHT22;4499;48.304;11.902;2023-06-10T13:30:08;25.60;80.70
8928;DHT22;4499;48.304;11.902;2023-06-10T13:32:36;25.60;77.10
8928;DHT22;4499;48.304;11.902;2023-06-10T13:35:05;25.70;78.20
8928;DHT22;4499;48.304;11.902;2023-06-10T13:37:35;25.40;79.80
8928;DHT22;4499;48.304;11.902;2023-06-10T13:40:04;25.40;79.00
8928;DHT22;4499;48.304;11.902;2023-06-10T13:42:36;25.30;81.30
8928;DHT22;4499;48.304;11.902;2023-06-10T13:45:05;25.60;79.70
8928;DHT22;4499;48.304;11.902;2023-06-10T13:47:34;26.30;77.40
8928;DHT22;4499;48.304;11.902;2023-06-10T13:50:02;26.50;77.80
8928;DHT22;4499;48.304;11.902;2023-06-10T13:52:30;26.10;76.20
8928;DHT22;4499;48.304;11.902;2023-06-10T13:54:58;26.70;74.70
8928;DHT22;4499;48.304;11.902;2023-06-10T13:57:27;26.70;73.10
8928;DHT22;4499;48.304;11.902;2023-06-10T13:59:56;26.40;71.30
8928;DHT22;4499;48.304;11.902;2023-06-10T14:02:24;25.70;72.20
8928;DHT22;4499;48.304;11.902;2023-06-10T14:04:53;25.70;73.80
8928;DHT22;4499;48.304;11.902;2023-06-10T14:07:21;25.70;78.80
8928;DHT22;4499;48.304;11.902;2023-06-10T14:09:50;25.50;76.00
8928;DHT22;4499;48.304;11.902;2023-06-10T14:12:18;25.40;76.50
8928;DHT22;4499;48.304;11.902;2023-06-10T14:14:46;25.20;76.00
8928;DHT22;4499;48.304;11.902;2023-06-10T14:17:16;25.10;78.50
8928;DHT22;4499;48.304;11.902;2023-06-10T14:19:44;25.10;82.50
8928;DHT22;4499;48.304;11.902;2023-06-10T14:22:12;25.00;82.90
8928;DHT22;4499;48.304;11.902;2023-06-10T14:24:40;25.00;81.20
8928;DHT22;4499;48.304;11.902;2023-06-10T14:27:09;24.80;79.30
8928;DHT22;4499;48.304;11.902;2023-06-10T14:29:37;24.70;79.30
8928;DHT22;4499;48.304;11.902;2023-06-10T14:32:05;24.60;79.80
8928;DHT22;4499;48.304;11.902;2023-06-10T14:34:37;24.40;84.30
8928;DHT22;4499;48.304;11.902;2023-06-10T14:37:06;24.50;84.40
8928;DHT22;4499;48.304;11.902;2023-06-10T14:39:35;24.60;84.30
8928;DHT22;4499;48.304;11.902;2023-06-10T14:42:03;24.60;83.10
8928;DHT22;4499;48.304;11.902;2023-06-10T14:44:32;24.90;84.70
8928;DHT22;4499;48.304;11.902;2023-06-10T14:47:01;24.70;80.50
8928;DHT22;4499;48.304;11.902;2023-06-10T14:49:29;24.80;82.30
8928;DHT22;4499;48.304;11.902;2023-06-10T14:51:59;24.70;82.80
8928;DHT22;4499;48.304;11.902;2023-06-10T14:54:27;24.60;87.90
8928;DHT22;4499;48.304;11.902;2023-06-10T14:56:55;24.40;85.90
8928;DHT22;4499;48.304;11.902;2023-06-10T14:59:23;24.30;89.70
8928;DHT22;4499;48.304;11.902;2023-06-10T15:01:51;24.40;90.00
8928;DHT22;4499;48.304;11.902;2023-06-10T15:04:20;24.20;87.60
8928;DHT22;4499;48.304;11.902;2023-06-10T15:06:50;24.20;90.70
8928;DHT22;4499;48.304;11.902;2023-06-10T15:09:20;24.20;88.40
8928;DHT22;4499;48.304;11.902;2023-06-10T15:11:48;24.20;89.90
8928;DHT22;4499;48.304;11.902;2023-06-10T15:14:16;24.20;88.40
8928;DHT22;4499;48.304;11.902;2023-06-10T15:16:44;24.20;87.00
8928;DHT22;4499;48.304;11.902;2023-06-10T15:19:13;24.20;88.20
8928;DHT22;4499;48.304;11.902;2023-06-10T15:21:41;24.20;85.70
8928;DHT22;4499;48.304;11.902;2023-06-10T15:24:09;24.30;87.70
8928;DHT22;4499;48.304;11.902;2023-06-10T15:26:39;24.20;84.80
8928;DHT22;4499;48.304;11.902;2023-06-10T15:29:08;24.40;83.60
8928;DHT22;4499;48.304;11.902;2023-06-10T15:31:37;24.50;84.80
8928;DHT22;4499;48.304;11.902;2023-06-10T15:34:05;24.40;86.70
8928;DHT22;4499;48.304;11.902;2023-06-10T15:36:35;24.30;90.60
8928;DHT22;4499;48.304;11.902;2023-06-10T15:39:05;24.20;90.20
8928;DHT22;4499;48.304;11.902;2023-06-10T15:41:34;24.00;91.10
8928;DHT22;4499;48.304;11.902;2023-06-10T15:44:03;24.00;90.00
8928;DHT22;4499;48.304;11.902;2023-06-10T15:46:32;23.90;91.50
8928;DHT22;4499;48.304;11.902;2023-06-10T15:49:01;23.80;90.30
8928;DHT22;4499;48.304;11.902;2023-06-10T15:51:30;23.80;91.80
8928;DHT22;4499;48.304;11.902;2023-06-10T15:53:58;23.70;92.30
8928;DHT22;4499;48.304;11.902;2023-06-10T15:56:26;23.80;92.40
8928;DHT22;4499;48.304;11.902;2023-06-10T15:58:54;23.90;93.80